sensor_id;sensor_type;location;lat;lon;timestamp;temperature;humidity
21123;DHT22;10719;48.130;11.630;2022-11-02T00:01:49;9.50;99.90
21123;DHT22;10719;48.130;11.630;2022-11-02T00:04:15;9.50;99.90
21123;DHT22;10719;48.130;11.630;2022-11-02T00:06:40;9.40;99.90
21123;DHT22;10719;48.130;11.630;2022-11-02T00:09:06;9.40;99.90
21123;DHT22;10719;48.130;11.630;2022-11-02T00:11:32;9.40;99.90
21123;DHT22;10719;48.130;11.630;2022-11-02T00:13:58;9.40;99.90
21123;DHT22;10719;48.130;11.630;2022-11-02T00:16:24;9.40;99.90
21123;DHT22;10719;48.130;11.630;2022-11-02T00:18:52;9.50;99.90
21123;DHT22;10719;48.130;11.630;2022-11-02T00:21:20;9.70;99.90
21123;DHT22;10719;48.130;11.630;2022-11-02T00:23:46;9.60;99.90
21123;DHT22;10719;48.130;11.630;2022-11-02T00:26:12;9.60;99.90
21123;DHT22;10719;48.130;11.630;2022-11-02T00:28:38;9.50;99.90
21123;DHT22;10719;48.130;11.630;2022-11-02T00:31:04;9.50;99.90
21123;DHT22;10719;48.130;11.630;2022-11-02T00:33:29;9.50;99.90
21123;DHT22;10719;48.130;11.630;2022-11-02T00:35:55;9.40;99.90
21123;DHT22;10719;48.130;11.630;2022-11-02T00:38:21;9.40;99.90
21123;DHT22;10719;48.130;11.630;2022-11-02T00:40:47;9.40;99.90
21123;DHT22;10719;48.130;11.630;2022-11-02T00:43:13;9.40;99.90
21123;DHT22;10719;48.130;11.630;2022-11-02T00:45:38;9.30;99.90
21123;DHT22;10719;48.130;11.630;2022-11-02T00:48:04;9.30;99.90
21123;DHT22;10719;48.130;11.630;2022-11-02T00:50:30;9.30;99.90
21123;DHT22;10719;48.130;11.630;2022-11-02T00:52:56;9.30;99.90
21123;DHT22;10719;48.130;11.630;2022-11-02T00:55:21;9.20;99.90
21123;DHT22;10719;48.130;11.630;2022-11-02T00:57:47;9.20;99.90
21123;DHT22;10719;48.130;11.630;2022-11-02T01:00:13;9.20;99.90
21123;DHT22;10719;48.130;11.630;2022-11-02T01:02:39;9.20;99.90
21123;DHT22;10719;48.130;11.630;2022-11-02T01:05:06;9.10;99.90
21123;DHT22;10719;48.130;11.630;2022-11-02T01:07:32;9.10;99.90
21123;DHT22;10719;48.130;11.630;2022-11-02T01:09:58;9.00;99.90
21123;DHT22;10719;48.130;11.630;2022-11-02T01:12:24;9.00;99.90
21123;DHT22;10719;48.130;11.630;2022-11-02T01:14:50;8.90;99.90
21123;DHT22;10719;48.130;11.630;2022-11-02T01:17:16;8.90;99.90
21123;DHT22;10719;48.130;11.630;2022-11-02T01:19:42;8.90;99.90
21123;DHT22;10719;48.130;11.630;2022-11-02T01:22:08;8.90;99.90
21123;DHT22;10719;48.130;11.630;2022-11-02T01:24:33;8.90;99.90
21123;DHT22;10719;48.130;11.630;2022-11-02T01:26:59;8.80;99.90
21123;DHT22;10719;48.130;11.630;2022-11-02T01:29:25;8.90;99.90
21123;DHT22;10719;48.130;11.630;2022-11-02T01:31:50;8.90;99.90
21123;DHT22;10719;48.130;11.630;2022-11-02T01:34:18;8.80;99.90
21123;DHT22;10719;48.130;11.630;2022-11-02T01:36:44;8.80;99.90
21123;DHT22;10719;48.130;11.630;2022-11-02T01:39:11;8.80;99.90
21123;DHT22;10719;48.130;11.630;2022-11-02T01:41:37;8.80;99.90
21123;DHT22;10719;48.130;11.630;2022-11-02T01:44:03;8.80;99.90
21123;DHT22;10719;48.130;11.630;2022-11-02T01:46:41;8.90;99.90
21123;DHT22;10719;48.130;11.630;2022-11-02T01:49:12;8.90;99.90
21123;DHT22;10719;48.130;11.630;2022-11-02T01:51:45;8.90;99.90
21123;DHT22;10719;48.130;11.630;2022-11-02T01:54:16;8.90;99.90
21123;DHT22;10719;48.130;11.630;2022-11-02T01:56:46;8.80;99.90
21123;DHT22;10719;48.130;11.630;2022-11-02T01:59:16;8.80;99.90
21123;DHT22;10719;48.130;11.630;2022-11-02T02:01:42;8.90;99.90
21123;DHT22;10719;48.130;11.630;2022-11-02T02:04:09;8.90;99.90
21123;DHT22;10719;48.130;11.630;2022-11-02T02:06:36;8.90;99.90
21123;DHT22;10719;48.130;11.630;2022-11-02T02:09:04;9.00;99.90
21123;DHT22;10719;48.130;11.630;2022-11-02T02:11:33;9.00;99.90
21123;DHT22;10719;48.130;11.630;2022-11-02T02:28:16;9.10;99.90
21123;DHT22;10719;48.130;11.630;2022-11-02T02:33:33;9.10;99.90
21123;DHT22;10719;48.130;11.630;2022-11-02T02:36:12;9.10;99.90
21123;DHT22;10719;48.130;11.630;2022-11-02T02:38:53;9.00;99.90
21123;DHT22;10719;48.130;11.630;2022-11-02T02:41:39;9.00;99.90
21123;DHT22;10719;48.130;11.630;2022-11-02T02:44:15;9.00;99.90
21123;DHT22;10719;48.130;11.630;2022-11-02T02:46:48;9.00;99.90
21123;DHT22;10719;48.130;11.630;2022-11-02T02:49:19;9.00;99.90
21123;DHT22;10719;48.130;11.630;2022-11-02T02:51:47;9.00;99.90
21123;DHT22;10719;48.130;11.630;2022-11-02T02:54:22;9.10;99.90
21123;DHT22;10719;48.130;11.630;2022-11-02T02:56:55;9.20;99.90
21123;DHT22;10719;48.130;11.630;2022-11-02T02:59:42;9.30;99.90
21123;DHT22;10719;48.130;11.630;2022-11-02T03:02:16;9.50;99.90
21123;DHT22;10719;48.130;11.630;2022-11-02T03:04:44;9.70;99.90
21123;DHT22;10719;48.130;11.630;2022-11-02T03:07:12;9.90;99.90
21123;DHT22;10719;48.130;11.630;2022-11-02T03:09:50;10.10;99.90
21123;DHT22;10719;48.130;11.630;2022-11-02T03:15:06;10.40;99.90
21123;DHT22;10719;48.130;11.630;2022-11-02T03:20:27;10.40;99.90
21123;DHT22;10719;48.130;11.630;2022-11-02T03:28:39;10.40;99.90
21123;DHT22;10719;48.130;11.630;2022-11-02T03:31:17;10.40;99.90
21123;DHT22;10719;48.130;11.630;2022-11-02T03:33:56;10.40;99.90
21123;DHT22;10719;48.130;11.630;2022-11-02T03:36:32;10.60;99.90
21123;DHT22;10719;48.130;11.630;2022-11-02T03:39:09;10.80;99.90
21123;DHT22;10719;48.130;11.630;2022-11-02T03:41:37;10.90;99.90
21123;DHT22;10719;48.130;11.630;2022-11-02T03:44:12;10.90;99.90
21123;DHT22;10719;48.130;11.630;2022-11-02T03:46:40;11.00;99.90
21123;DHT22;10719;48.130;11.630;2022-11-02T03:49:11;11.10;99.90
21123;DHT22;10719;48.130;11.630;2022-11-02T03:51:41;11.10;99.90
21123;DHT22;10719;48.130;11.630;2022-11-02T03:56:56;11.30;99.90
21123;DHT22;10719;48.130;11.630;2022-11-02T03:59:22;11.40;99.90
21123;DHT22;10719;48.130;11.630;2022-11-02T04:01:49;11.50;99.90
21123;DHT22;10719;48.130;11.630;2022-11-02T04:04:16;11.40;99.90
21123;DHT22;10719;48.130;11.630;2022-11-02T04:06:43;11.30;99.90
21123;DHT22;10719;48.130;11.630;2022-11-02T04:09:10;11.20;99.90
21123;DHT22;10719;48.130;11.630;2022-11-02T04:11:36;11.30;99.90
21123;DHT22;10719;48.130;11.630;2022-11-02T04:14:20;11.30;99.90
21123;DHT22;10719;48.130;11.630;2022-11-02T04:17:09;11.30;99.90
21123;DHT22;10719;48.130;11.630;2022-11-02T04:19:54;11.20;99.90
21123;DHT22;10719;48.130;11.630;2022-11-02T04:22:26;11.20;99.90
21123;DHT22;10719;48.130;11.630;2022-11-02T04:25:21;11.10;99.90
21123;DHT22;10719;48.130;11.630;2022-11-02T04:27:50;10.90;99.90
21123;DHT22;10719;48.130;11.630;2022-11-02T04:30:20;10.90;99.90
21123;DHT22;10719;48.130;11.630;2022-11-02T04:32:48;10.80;99.90
21123;DHT22;10719;48.130;11.630;2022-11-02T04:35:34;10.80;99.90
21123;DHT22;10719;48.130;11.630;2022-11-02T04:38:00;10.70;99.90
21123;DHT22;10719;48.130;11.630;2022-11-02T04:40:45;10.70;99.90
21123;DHT22;10719;48.130;11.630;2022-11-02T04:43:10;10.60;99.90
21123;DHT22;10719;48.130;11.630;2022-11-02T04:45:36;10.60;99.90
21123;DHT22;10719;48.130;11.630;2022-11-02T04:48:06;10.40;99.90
21123;DHT22;10719;48.130;11.630;2022-11-02T04:50:33;10.30;99.90
21123;DHT22;10719;48.130;11.630;2022-11-02T04:53:01;10.30;99.90
21123;DHT22;10719;48.130;11.630;2022-11-02T04:55:27;10.20;99.90
21123;DHT22;10719;48.130;11.630;2022-11-02T04:57:53;10.10;99.90
21123;DHT22;10719;48.130;11.630;2022-11-02T05:00:20;10.00;99.90
21123;DHT22;10719;48.130;11.630;2022-11-02T05:02:49;10.00;99.90
21123;DHT22;10719;48.130;11.630;2022-11-02T05:05:15;9.90;99.90
21123;DHT22;10719;48.130;11.630;2022-11-02T05:07:42;9.90;99.90
21123;DHT22;10719;48.130;11.630;2022-11-02T05:10:08;9.90;99.90
21123;DHT22;10719;48.130;11.630;2022-11-02T05:12:34;9.90;99.90
21123;DHT22;10719;48.130;11.630;2022-11-02T05:15:00;9.80;99.90
21123;DHT22;10719;48.130;11.630;2022-11-02T05:17:25;9.80;99.90
21123;DHT22;10719;48.130;11.630;2022-11-02T05:19:51;9.80;99.90
21123;DHT22;10719;48.130;11.630;2022-11-02T05:22:16;9.80;99.90
21123;DHT22;10719;48.130;11.630;2022-11-02T05:24:45;9.70;99.90
21123;DHT22;10719;48.130;11.630;2022-11-02T05:27:11;9.90;99.90
21123;DHT22;10719;48.130;11.630;2022-11-02T05:29:36;9.80;99.90
21123;DHT22;10719;48.130;11.630;2022-11-02T05:32:02;9.80;99.90
21123;DHT22;10719;48.130;11.630;2022-11-02T05:34:27;9.90;99.90
21123;DHT22;10719;48.130;11.630;2022-11-02T05:36:53;10.00;99.90
21123;DHT22;10719;48.130;11.630;2022-11-02T05:39:19;10.00;99.90
21123;DHT22;10719;48.130;11.630;2022-11-02T05:41:44;10.00;99.90
21123;DHT22;10719;48.130;11.630;2022-11-02T05:44:10;10.00;99.90
21123;DHT22;10719;48.130;11.630;2022-11-02T05:46:35;10.00;99.90
21123;DHT22;10719;48.130;11.630;2022-11-02T05:49:01;10.00;99.90
21123;DHT22;10719;48.130;11.630;2022-11-02T05:51:26;10.00;99.90
21123;DHT22;10719;48.130;11.630;2022-11-02T05:53:52;10.00;99.90
21123;DHT22;10719;48.130;11.630;2022-11-02T05:56:17;10.00;99.90
21123;DHT22;10719;48.130;11.630;2022-11-02T05:58:43;10.00;99.90
21123;DHT22;10719;48.130;11.630;2022-11-02T06:01:10;9.90;99.90
21123;DHT22;10719;48.130;11.630;2022-11-02T06:03:36;9.90;99.90
21123;DHT22;10719;48.130;11.630;2022-11-02T06:06:04;9.90;99.90
21123;DHT22;10719;48.130;11.630;2022-11-02T06:08:32;9.90;99.90
21123;DHT22;10719;48.130;11.630;2022-11-02T06:10:58;9.90;99.90
21123;DHT22;10719;48.130;11.630;2022-11-02T06:13:27;9.90;99.90
21123;DHT22;10719;48.130;11.630;2022-11-02T06:15:53;9.90;99.90
21123;DHT22;10719;48.130;11.630;2022-11-02T06:18:18;9.90;99.90
21123;DHT22;10719;48.130;11.630;2022-11-02T06:20:44;9.90;99.90
21123;DHT22;10719;48.130;11.630;2022-11-02T06:23:09;9.90;99.90
21123;DHT22;10719;48.130;11.630;2022-11-02T06:25:38;10.00;99.90
21123;DHT22;10719;48.130;11.630;2022-11-02T06:28:04;10.00;99.90
21123;DHT22;10719;48.130;11.630;2022-11-02T06:30:29;10.00;99.90
21123;DHT22;10719;48.130;11.630;2022-11-02T06:32:55;10.00;99.90
21123;DHT22;10719;48.130;11.630;2022-11-02T06:35:21;10.10;99.90
21123;DHT22;10719;48.130;11.630;2022-11-02T06:37:47;10.00;99.90
21123;DHT22;10719;48.130;11.630;2022-11-02T06:40:13;10.00;99.90
21123;DHT22;10719;48.130;11.630;2022-11-02T06:42:40;10.00;99.90
21123;DHT22;10719;48.130;11.630;2022-11-02T06:45:06;10.10;99.90
21123;DHT22;10719;48.130;11.630;2022-11-02T06:47:34;10.10;99.90
21123;DHT22;10719;48.130;11.630;2022-11-02T06:50:00;10.10;99.90
21123;DHT22;10719;48.130;11.630;2022-11-02T06:52:26;10.10;99.90
21123;DHT22;10719;48.130;11.630;2022-11-02T06:54:52;10.10;99.90
21123;DHT22;10719;48.130;11.630;2022-11-02T06:57:19;10.10;99.90
21123;DHT22;10719;48.130;11.630;2022-11-02T06:59:45;10.00;99.90
21123;DHT22;10719;48.130;11.630;2022-11-02T07:02:11;10.10;99.90
21123;DHT22;10719;48.130;11.630;2022-11-02T07:04:36;10.20;99.90
21123;DHT22;10719;48.130;11.630;2022-11-02T07:07:02;10.20;99.90
21123;DHT22;10719;48.130;11.630;2022-11-02T07:09:28;10.40;99.90
21123;DHT22;10719;48.130;11.630;2022-11-02T07:11:53;10.50;99.90
21123;DHT22;10719;48.130;11.630;2022-11-02T07:14:22;10.60;99.90
21123;DHT22;10719;48.130;11.630;2022-11-02T07:16:50;10.80;99.90
21123;DHT22;10719;48.130;11.630;2022-11-02T07:19:16;10.70;99.90
21123;DHT22;10719;48.130;11.630;2022-11-02T07:21:41;10.80;99.90
21123;DHT22;10719;48.130;11.630;2022-11-02T07:24:07;10.80;99.90
21123;DHT22;10719;48.130;11.630;2022-11-02T07:26:32;10.80;99.90
21123;DHT22;10719;48.130;11.630;2022-11-02T07:28:58;10.80;99.90
21123;DHT22;10719;48.130;11.630;2022-11-02T07:33:49;10.80;99.90
21123;DHT22;10719;48.130;11.630;2022-11-02T07:36:15;10.80;99.90
21123;DHT22;10719;48.130;11.630;2022-11-02T07:38:41;10.80;99.90
21123;DHT22;10719;48.130;11.630;2022-11-02T07:41:07;11.00;99.90
21123;DHT22;10719;48.130;11.630;2022-11-02T07:43:32;11.10;99.90
21123;DHT22;10719;48.130;11.630;2022-11-02T07:46:00;11.20;99.90
21123;DHT22;10719;48.130;11.630;2022-11-02T07:48:25;11.30;99.90
21123;DHT22;10719;48.130;11.630;2022-11-02T07:50:51;11.40;99.90
21123;DHT22;10719;48.130;11.630;2022-11-02T07:53:16;11.40;99.90
21123;DHT22;10719;48.130;11.630;2022-11-02T07:55:42;11.50;99.90
21123;DHT22;10719;48.130;11.630;2022-11-02T07:58:11;11.60;99.90
21123;DHT22;10719;48.130;11.630;2022-11-02T08:00:40;11.80;99.90
21123;DHT22;10719;48.130;11.630;2022-11-02T08:03:07;11.80;99.90
21123;DHT22;10719;48.130;11.630;2022-11-02T08:05:35;12.00;99.90
21123;DHT22;10719;48.130;11.630;2022-11-02T08:08:13;12.10;99.90
21123;DHT22;10719;48.130;11.630;2022-11-02T08:10:39;12.40;99.90
21123;DHT22;10719;48.130;11.630;2022-11-02T08:13:09;12.70;99.90
21123;DHT22;10719;48.130;11.630;2022-11-02T08:15:35;12.90;99.90
21123;DHT22;10719;48.130;11.630;2022-11-02T08:18:06;13.10;99.90
21123;DHT22;10719;48.130;11.630;2022-11-02T08:20:34;13.30;99.90
21123;DHT22;10719;48.130;11.630;2022-11-02T08:23:00;13.40;99.90
21123;DHT22;10719;48.130;11.630;2022-11-02T08:25:26;13.40;99.90
21123;DHT22;10719;48.130;11.630;2022-11-02T08:27:55;13.30;99.90
21123;DHT22;10719;48.130;11.630;2022-11-02T08:30:21;13.30;99.90
21123;DHT22;10719;48.130;11.630;2022-11-02T08:32:46;13.30;99.90
21123;DHT22;10719;48.130;11.630;2022-11-02T08:35:12;13.30;99.90
21123;DHT22;10719;48.130;11.630;2022-11-02T08:37:38;13.30;99.90
21123;DHT22;10719;48.130;11.630;2022-11-02T08:40:03;13.30;99.90
21123;DHT22;10719;48.130;11.630;2022-11-02T08:42:29;13.50;99.90
21123;DHT22;10719;48.130;11.630;2022-11-02T08:44:55;13.70;99.90
21123;DHT22;10719;48.130;11.630;2022-11-02T08:47:20;14.00;99.90
21123;DHT22;10719;48.130;11.630;2022-11-02T08:49:46;14.30;99.90
21123;DHT22;10719;48.130;11.630;2022-11-02T08:52:12;14.50;99.90
21123;DHT22;10719;48.130;11.630;2022-11-02T08:54:37;14.70;99.90
21123;DHT22;10719;48.130;11.630;2022-11-02T08:57:03;14.80;99.90
21123;DHT22;10719;48.130;11.630;2022-11-02T08:59:28;14.80;99.90
21123;DHT22;10719;48.130;11.630;2022-11-02T09:01:54;14.80;99.90
21123;DHT22;10719;48.130;11.630;2022-11-02T09:04:19;14.90;99.90
21123;DHT22;10719;48.130;11.630;2022-11-02T09:06:45;14.90;99.90
21123;DHT22;10719;48.130;11.630;2022-11-02T09:09:10;14.70;99.90
21123;DHT22;10719;48.130;11.630;2022-11-02T09:11:36;14.60;99.90
21123;DHT22;10719;48.130;11.630;2022-11-02T09:14:02;14.70;99.90
21123;DHT22;10719;48.130;11.630;2022-11-02T09:16:27;14.70;99.90
21123;DHT22;10719;48.130;11.630;2022-11-02T09:18:53;14.90;99.90
21123;DHT22;10719;48.130;11.630;2022-11-02T09:21:18;15.00;99.90
21123;DHT22;10719;48.130;11.630;2022-11-02T09:23:44;15.20;99.90
21123;DHT22;10719;48.130;11.630;2022-11-02T09:26:13;15.20;99.90
21123;DHT22;10719;48.130;11.630;2022-11-02T09:28:38;15.40;99.90
21123;DHT22;10719;48.130;11.630;2022-11-02T09:31:04;15.50;99.90
21123;DHT22;10719;48.130;11.630;2022-11-02T09:33:29;15.70;99.90
21123;DHT22;10719;48.130;11.630;2022-11-02T09:36:01;15.80;99.90
21123;DHT22;10719;48.130;11.630;2022-11-02T09:38:27;15.80;99.90
21123;DHT22;10719;48.130;11.630;2022-11-02T09:41:16;15.80;99.90
21123;DHT22;10719;48.130;11.630;2022-11-02T09:43:49;15.50;99.90
21123;DHT22;10719;48.130;11.630;2022-11-02T09:48:55;15.30;99.90
21123;DHT22;10719;48.130;11.630;2022-11-02T09:51:27;15.20;99.90
21123;DHT22;10719;48.130;11.630;2022-11-02T09:54:12;15.20;99.90
21123;DHT22;10719;48.130;11.630;2022-11-02T09:56:39;15.20;99.90
21123;DHT22;10719;48.130;11.630;2022-11-02T09:59:14;15.20;99.90
21123;DHT22;10719;48.130;11.630;2022-11-02T10:10:16;14.90;99.90
21123;DHT22;10719;48.130;11.630;2022-11-02T10:18:07;15.00;99.90
21123;DHT22;10719;48.130;11.630;2022-11-02T10:20:43;15.10;99.90
21123;DHT22;10719;48.130;11.630;2022-11-02T10:23:48;15.30;99.90
21123;DHT22;10719;48.130;11.630;2022-11-02T10:26:07;15.50;99.90
21123;DHT22;10719;48.130;11.630;2022-11-02T10:28:38;15.50;99.90
21123;DHT22;10719;48.130;11.630;2022-11-02T10:31:35;15.40;99.90
21123;DHT22;10719;48.130;11.630;2022-11-02T10:34:22;15.20;99.90
21123;DHT22;10719;48.130;11.630;2022-11-02T10:39:41;15.20;99.90
21123;DHT22;10719;48.130;11.630;2022-11-02T10:47:30;14.90;99.90
21123;DHT22;10719;48.130;11.630;2022-11-02T10:52:44;15.00;99.90
21123;DHT22;10719;48.130;11.630;2022-11-02T10:55:38;15.20;99.90
21123;DHT22;10719;48.130;11.630;2022-11-02T10:58:05;15.20;99.90
21123;DHT22;10719;48.130;11.630;2022-11-02T11:00:35;15.10;99.90
21123;DHT22;10719;48.130;11.630;2022-11-02T11:03:09;15.30;99.90
21123;DHT22;10719;48.130;11.630;2022-11-02T11:08:42;15.40;99.90
21123;DHT22;10719;48.130;11.630;2022-11-02T11:13:42;15.20;99.90
21123;DHT22;10719;48.130;11.630;2022-11-02T11:16:08;15.30;99.90
21123;DHT22;10719;48.130;11.630;2022-11-02T11:18:34;15.20;99.90
21123;DHT22;10719;48.130;11.630;2022-11-02T11:21:01;15.20;99.90
21123;DHT22;10719;48.130;11.630;2022-11-02T11:23:27;15.10;99.90
21123;DHT22;10719;48.130;11.630;2022-11-02T11:25:54;15.20;99.90
21123;DHT22;10719;48.130;11.630;2022-11-02T11:33:28;15.40;99.90
21123;DHT22;10719;48.130;11.630;2022-11-02T11:35:54;15.40;99.90
21123;DHT22;10719;48.130;11.630;2022-11-02T11:38:22;15.30;99.90
21123;DHT22;10719;48.130;11.630;2022-11-02T11:40:56;15.30;99.90
21123;DHT22;10719;48.130;11.630;2022-11-02T11:43:25;15.20;99.90
21123;DHT22;10719;48.130;11.630;2022-11-02T11:45:53;15.10;99.90
21123;DHT22;10719;48.130;11.630;2022-11-02T11:48:41;15.10;99.90
21123;DHT22;10719;48.130;11.630;2022-11-02T11:51:36;15.20;99.90
21123;DHT22;10719;48.130;11.630;2022-11-02T11:54:20;15.10;99.90
21123;DHT22;10719;48.130;11.630;2022-11-02T11:56:47;15.10;99.90
21123;DHT22;10719;48.130;11.630;2022-11-02T12:02:27;15.00;99.90
21123;DHT22;10719;48.130;11.630;2022-11-02T12:07:47;15.00;99.90
21123;DHT22;10719;48.130;11.630;2022-11-02T12:10:25;15.00;99.90
21123;DHT22;10719;48.130;11.630;2022-11-02T12:13:12;14.90;99.90
21123;DHT22;10719;48.130;11.630;2022-11-02T12:32:47;15.00;99.90
21123;DHT22;10719;48.130;11.630;2022-11-02T12:41:23;15.10;99.90
21123;DHT22;10719;48.130;11.630;2022-11-02T12:43:57;14.80;99.90
21123;DHT22;10719;48.130;11.630;2022-11-02T12:46:48;15.00;99.90
21123;DHT22;10719;48.130;11.630;2022-11-02T12:52:25;15.00;99.90
21123;DHT22;10719;48.130;11.630;2022-11-02T12:54:56;14.70;99.90
21123;DHT22;10719;48.130;11.630;2022-11-02T12:57:26;14.70;99.90
21123;DHT22;10719;48.130;11.630;2022-11-02T12:59:56;14.80;99.90
21123;DHT22;10719;48.130;11.630;2022-11-02T13:05:33;14.80;99.90
21123;DHT22;10719;48.130;11.630;2022-11-02T13:08:05;14.70;99.90
21123;DHT22;10719;48.130;11.630;2022-11-02T13:11:17;14.60;99.90
21123;DHT22;10719;48.130;11.630;2022-11-02T13:13:37;14.30;99.90
21123;DHT22;10719;48.130;11.630;2022-11-02T13:16:06;14.30;99.90
21123;DHT22;10719;48.130;11.630;2022-11-02T13:18:48;14.50;99.90
21123;DHT22;10719;48.130;11.630;2022-11-02T13:21:17;14.80;99.90
21123;DHT22;10719;48.130;11.630;2022-11-02T13:23:48;15.10;99.90
21123;DHT22;10719;48.130;11.630;2022-11-02T13:29:05;14.80;99.90
21123;DHT22;10719;48.130;11.630;2022-11-02T13:31:36;14.80;99.90
21123;DHT22;10719;48.130;11.630;2022-11-02T13:34:14;14.50;99.90
21123;DHT22;10719;48.130;11.630;2022-11-02T13:36:43;14.60;99.90
21123;DHT22;10719;48.130;11.630;2022-11-02T13:39:23;14.70;99.90
21123;DHT22;10719;48.130;11.630;2022-11-02T13:50:32;14.40;99.90
21123;DHT22;10719;48.130;11.630;2022-11-02T13:53:01;14.40;99.90
21123;DHT22;10719;48.130;11.630;2022-11-02T13:55:43;14.30;99.90
21123;DHT22;10719;48.130;11.630;2022-11-02T14:00:45;14.30;99.90
21123;DHT22;10719;48.130;11.630;2022-11-02T14:03:18;14.30;99.90
21123;DHT22;10719;48.130;11.630;2022-11-02T14:05:58;14.20;99.90
21123;DHT22;10719;48.130;11.630;2022-11-02T14:08:37;14.20;99.90
21123;DHT22;10719;48.130;11.630;2022-11-02T14:11:33;14.20;99.90
21123;DHT22;10719;48.130;11.630;2022-11-02T14:35:16;14.10;99.90
21123;DHT22;10719;48.130;11.630;2022-11-02T14:43:41;14.00;99.90
21123;DHT22;10719;48.130;11.630;2022-11-02T14:48:53;13.70;99.90
21123;DHT22;10719;48.130;11.630;2022-11-02T14:51:26;13.70;99.90
21123;DHT22;10719;48.130;11.630;2022-11-02T14:54:01;13.70;99.90
21123;DHT22;10719;48.130;11.630;2022-11-02T14:56:56;13.70;99.90
21123;DHT22;10719;48.130;11.630;2022-11-02T14:59:32;13.60;99.90
21123;DHT22;10719;48.130;11.630;2022-11-02T15:04:56;13.70;99.90
21123;DHT22;10719;48.130;11.630;2022-11-02T15:07:41;13.50;99.90
21123;DHT22;10719;48.130;11.630;2022-11-02T15:12:41;13.30;99.90
21123;DHT22;10719;48.130;11.630;2022-11-02T15:23:20;12.90;99.90
21123;DHT22;10719;48.130;11.630;2022-11-02T15:25:51;12.80;99.90
21123;DHT22;10719;48.130;11.630;2022-11-02T15:28:23;12.70;99.90
21123;DHT22;10719;48.130;11.630;2022-11-02T15:30:51;12.50;99.90
21123;DHT22;10719;48.130;11.630;2022-11-02T15:33:37;12.40;99.90
21123;DHT22;10719;48.130;11.630;2022-11-02T15:36:06;12.30;99.90
21123;DHT22;10719;48.130;11.630;2022-11-02T15:38:33;12.20;99.90
21123;DHT22;10719;48.130;11.630;2022-11-02T15:41:20;12.10;99.90
21123;DHT22;10719;48.130;11.630;2022-11-02T15:46:58;11.80;99.90
21123;DHT22;10719;48.130;11.630;2022-11-02T15:53:33;11.60;99.90
21123;DHT22;10719;48.130;11.630;2022-11-02T15:56:18;11.50;99.90
21123;DHT22;10719;48.130;11.630;2022-11-02T16:01:21;11.40;99.90
21123;DHT22;10719;48.130;11.630;2022-11-02T16:03:57;11.40;99.90
21123;DHT22;10719;48.130;11.630;2022-11-02T16:08:57;11.30;99.90
21123;DHT22;10719;48.130;11.630;2022-11-02T16:11:24;11.20;99.90
21123;DHT22;10719;48.130;11.630;2022-11-02T16:13:50;11.10;99.90
21123;DHT22;10719;48.130;11.630;2022-11-02T16:16:19;11.10;99.90
21123;DHT22;10719;48.130;11.630;2022-11-02T16:18:50;11.00;99.90
21123;DHT22;10719;48.130;11.630;2022-11-02T16:21:19;10.90;99.90
21123;DHT22;10719;48.130;11.630;2022-11-02T16:23:55;10.80;99.90
21123;DHT22;10719;48.130;11.630;2022-11-02T16:26:25;10.70;99.90
21123;DHT22;10719;48.130;11.630;2022-11-02T16:28:56;10.60;99.90
21123;DHT22;10719;48.130;11.630;2022-11-02T16:31:24;10.60;99.90
21123;DHT22;10719;48.130;11.630;2022-11-02T16:33:57;10.50;99.90
21123;DHT22;10719;48.130;11.630;2022-11-02T16:38:59;10.30;99.90
21123;DHT22;10719;48.130;11.630;2022-11-02T16:41:27;10.20;99.90
21123;DHT22;10719;48.130;11.630;2022-11-02T16:43:53;10.10;99.90
21123;DHT22;10719;48.130;11.630;2022-11-02T16:46:29;10.10;99.90
21123;DHT22;10719;48.130;11.630;2022-11-02T16:49:03;10.10;99.90
21123;DHT22;10719;48.130;11.630;2022-11-02T16:51:31;10.00;99.90
21123;DHT22;10719;48.130;11.630;2022-11-02T16:54:29;9.90;99.90
21123;DHT22;10719;48.130;11.630;2022-11-02T16:57:11;9.90;99.90
21123;DHT22;10719;48.130;11.630;2022-11-02T16:59:46;9.80;99.90
21123;DHT22;10719;48.130;11.630;2022-11-02T17:02:13;9.70;99.90
21123;DHT22;10719;48.130;11.630;2022-11-02T17:04:41;9.70;99.90
21123;DHT22;10719;48.130;11.630;2022-11-02T17:07:23;9.60;99.90
21123;DHT22;10719;48.130;11.630;2022-11-02T17:09:54;9.70;99.90
21123;DHT22;10719;48.130;11.630;2022-11-02T17:12:32;9.60;99.90
21123;DHT22;10719;48.130;11.630;2022-11-02T17:15:00;9.60;99.90
21123;DHT22;10719;48.130;11.630;2022-11-02T17:17:30;9.60;99.90
21123;DHT22;10719;48.130;11.630;2022-11-02T17:20:20;9.50;99.90
21123;DHT22;10719;48.130;11.630;2022-11-02T17:22:57;9.50;99.90
21123;DHT22;10719;48.130;11.630;2022-11-02T17:25:32;9.40;99.90
21123;DHT22;10719;48.130;11.630;2022-11-02T17:28:00;9.40;99.90
21123;DHT22;10719;48.130;11.630;2022-11-02T17:32:57;9.40;99.90
21123;DHT22;10719;48.130;11.630;2022-11-02T17:35:23;9.30;99.90
21123;DHT22;10719;48.130;11.630;2022-11-02T17:37:49;9.30;99.90
21123;DHT22;10719;48.130;11.630;2022-11-02T17:40:15;9.30;99.90
21123;DHT22;10719;48.130;11.630;2022-11-02T17:42:41;9.20;99.90
21123;DHT22;10719;48.130;11.630;2022-11-02T17:45:33;9.20;99.90
21123;DHT22;10719;48.130;11.630;2022-11-02T17:48:02;9.20;99.90
21123;DHT22;10719;48.130;11.630;2022-11-02T17:50:29;9.20;99.90
21123;DHT22;10719;48.130;11.630;2022-11-02T17:52:57;9.20;99.90
21123;DHT22;10719;48.130;11.630;2022-11-02T17:55:33;9.20;99.90
21123;DHT22;10719;48.130;11.630;2022-11-02T17:57:59;9.10;99.90
21123;DHT22;10719;48.130;11.630;2022-11-02T18:00:26;9.10;99.90
21123;DHT22;10719;48.130;11.630;2022-11-02T18:02:57;9.00;99.90
21123;DHT22;10719;48.130;11.630;2022-11-02T18:05:26;9.00;99.90
21123;DHT22;10719;48.130;11.630;2022-11-02T18:07:52;8.90;99.90
21123;DHT22;10719;48.130;11.630;2022-11-02T18:10:21;8.90;99.90
21123;DHT22;10719;48.130;11.630;2022-11-02T18:12:46;8.80;99.90
21123;DHT22;10719;48.130;11.630;2022-11-02T18:15:18;8.80;99.90
21123;DHT22;10719;48.130;11.630;2022-11-02T18:17:44;8.70;99.90
21123;DHT22;10719;48.130;11.630;2022-11-02T18:20:11;8.80;99.90
21123;DHT22;10719;48.130;11.630;2022-11-02T18:22:37;8.70;99.90
21123;DHT22;10719;48.130;11.630;2022-11-02T18:25:08;8.60;99.90
21123;DHT22;10719;48.130;11.630;2022-11-02T18:27:35;8.60;99.90
21123;DHT22;10719;48.130;11.630;2022-11-02T18:30:01;8.60;99.90
21123;DHT22;10719;48.130;11.630;2022-11-02T18:32:26;8.60;99.90
21123;DHT22;10719;48.130;11.630;2022-11-02T18:34:52;8.60;99.90
21123;DHT22;10719;48.130;11.630;2022-11-02T18:37:18;8.50;99.90
21123;DHT22;10719;48.130;11.630;2022-11-02T18:39:43;8.50;99.90
21123;DHT22;10719;48.130;11.630;2022-11-02T18:42:09;8.40;99.90